KPDXKRDM

Guest
Details From KPDX - Portland Intl
To KRDM - Roberts Fld
Flight Number -
Tags Generated
Created
Modified
Stats Distance 101 nm / 187 km
Max Altitude 0 ft / 0 m
Waypoints 2
Social Downloads 4
Likes 0
Share VATSIM

Download

Looking for another format? Having issues loading an existing format? Contact us
Advertisement - Login to hide

Notes

Generated

Route

KPDX KRDM

ID Type Via Altitude Latitude Longitude Leg Dist Tot Dist Heading (true) Name
O KPDX APT - 0 ft / 0 m 45.58243˚ -122.61681˚ - 0 nm - -
O KRDM APT - 0 ft / 0 m 44.25892˚ -121.16115˚ 100 nm 100 nm 142° / 143° -

Altitude Profile

Advertisement - Login to hide

KPDX

Details ICAO KPDX (PDX)
Name PORTLAND INTL
Region United States
Timezone America/Los_Angeles (UTC-7.0)
Stats Elevation 30 ft / 9 m (AMSL)
Location 45.588839° -122.597259°
Runways 3
Magnetic Variation 15.236° E

METAR

KPDX 262053Z VRB04KT 10SM FEW040 BKN065 18/08 A3019 RMK AO2 SLP223 T01780078 53000

Decode

TAF

KPDX 262052Z 2621/2718 26007KT P6SM SCT040 BKN060 FM270000 33008KT P6SM BKN050 FM270800 33004KT P6SM SCT050 FM271200 VRB03KT P6SM SCT025 BKN035

Decode

Departure Runways

ID Width Length Bearing (true) Bearing (mag) Surface Threshold Offset Overrun Length
03 150 ft / 46 m 6,994 ft / 2,132 m 44.93° 29.69° Asphalt 0 ft / 0 m 0 ft / 0 m
10L 150 ft / 46 m 7,986 ft / 2,434 m 119.11° 103.87° Asphalt 0 ft / 0 m 0 ft / 0 m
10R 150 ft / 46 m 10,980 ft / 3,347 m 119.09° 103.85° Asphalt 0 ft / 0 m 0 ft / 0 m
21 150 ft / 46 m 6,994 ft / 2,132 m 224.94° 209.70° Asphalt 680 ft / 207 m 0 ft / 0 m
28L 150 ft / 46 m 10,980 ft / 3,347 m 299.12° 283.88° Asphalt 0 ft / 0 m 1,000 ft / 305 m
28R 150 ft / 46 m 7,986 ft / 2,434 m 299.13° 283.89° Asphalt 0 ft / 0 m 0 ft / 0 m

KRDM

Details ICAO KRDM (RDM)
Name Roberts Fld
Region United States
Timezone America/Los_Angeles (UTC-7.0)
Stats Elevation 3,077 ft / 938 m (AMSL)
Location 44.254066° -121.149963°
Runways 2
Magnetic Variation 14.661° E

METAR

KRDM 262056Z 33013G19KT 10SM SCT050 18/04 A3006 RMK AO2 SLP168 T01830039 50001

Decode

TAF

TAF KRDM 261720Z 2618/2718 30010KT P6SM FEW030 SCT100 FM262000 32012G18KT P6SM SCT050 FM270300 31009KT P6SM SKC FM270900 18005KT P6SM SKC FM271700 31009KT P6SM SKC

Decode

Destination Runways

ID Width Length Bearing (true) Bearing (mag) Surface Threshold Offset Overrun Length
04 150 ft / 46 m 7,028 ft / 2,142 m 60.26° 45.60° Asphalt 0 ft / 0 m 0 ft / 0 m
10 100 ft / 30 m 6,987 ft / 2,130 m 121.97° 107.31° Asphalt 0 ft / 0 m 0 ft / 0 m
22 150 ft / 46 m 7,028 ft / 2,142 m 240.28° 225.62° Asphalt 0 ft / 0 m 0 ft / 0 m
28 100 ft / 30 m 6,987 ft / 2,130 m 301.99° 287.33° Asphalt 0 ft / 0 m 0 ft / 0 m

Approach Navaids

Runway Type Ident Frequency Range Bearing (true) Bearing (mag) Slope Elevation
22 Localiser IRDM 109.10 MHz 18 nm / 33 km 240.27° 225.61° - 3,077 ft / 938 m (AMSL)
22 Glidescope IRDM 109.10 MHz 10 nm / 19 km 240.27° 225.61° 3.00° 3,052 ft / 930 m (AMSL)

Popular Alternatives